Time;durP1;ratioP1;P1;durP2;ratioP2;P2;SDS_P1;SDS_P2;PMS_P1;PMS_P2;Temp;Humidity;BMP_temperature;BMP_pressure;BME280_temperature;BME280_humidity;BME280_pressure;Samples;Min_cycle;Max_cycle;Signal;HPM_P1;HPM_P2
2024/01/07 00:01:15;;;;;;;10.77;7.03;;;;;;;5.47;72.49;95481.66;5095902;28;20169;-69
2024/01/07 00:03:42;;;;;;;7.60;6.43;;;;;;;5.64;72.16;95479.22;5095672;28;20184;-69
2024/01/07 00:06:07;;;;;;;9.20;6.90;;;;;;;5.60;72.84;95474.19;5095653;28;20808;-69
2024/01/07 00:08:33;;;;;;;12.77;8.13;;;;;;;5.77;72.18;95473.56;5094187;28;20420;-68
2024/01/07 00:10:58;;;;;;;9.37;6.40;;;;;;;5.66;71.97;95477.41;5088658;28;20208;-69
2024/01/07 00:13:23;;;;;;;8.60;6.80;;;;;;;5.56;72.34;95480.44;5090671;28;20610;-68
2024/01/07 00:15:49;;;;;;;8.77;7.87;;;;;;;5.55;72.92;95476.13;5088242;28;20193;-70
2024/01/07 00:18:14;;;;;;;9.63;8.00;;;;;;;5.61;73.03;95476.75;5088411;28;20630;-69
2024/01/07 00:20:39;;;;;;;9.53;7.13;;;;;;;5.73;72.22;95480.63;5087800;28;20197;-68
2024/01/07 00:23:05;;;;;;;9.60;7.47;;;;;;;5.65;72.37;95478.34;5087601;28;20896;-70
2024/01/07 00:25:30;;;;;;;9.27;7.80;;;;;;;5.52;73.03;95477.94;5088188;28;20169;-68
2024/01/07 00:27:55;;;;;;;8.90;8.00;;;;;;;5.46;73.09;95478.19;5087708;28;20264;-68
2024/01/07 00:30:21;;;;;;;11.30;8.30;;;;;;;5.63;73.06;95474.09;5087707;28;20212;-68
2024/01/07 00:32:47;;;;;;;8.13;6.87;;;;;;;5.55;72.74;95483.94;5088110;28;20173;-68
2024/01/07 00:35:12;;;;;;;9.60;7.70;;;;;;;5.57;72.63;95475.16;5088796;28;20575;-69
2024/01/07 00:37:37;;;;;;;9.30;7.60;;;;;;;5.60;72.45;95472.47;5088465;28;20840;-68
2024/01/07 00:40:04;;;;;;;11.97;7.67;;;;;;;5.52;72.55;95479.69;5087607;28;20178;-69
2024/01/07 00:42:30;;;;;;;8.67;7.40;;;;;;;5.51;72.53;95475.41;5101323;28;20170;-69
2024/01/07 00:44:56;;;;;;;10.60;8.83;;;;;;;5.54;72.45;95474.44;5103770;28;21152;-70
2024/01/07 00:47:21;;;;;;;7.90;6.83;;;;;;;5.41;72.68;95474.06;5103839;28;20439;-69
2024/01/07 00:49:46;;;;;;;10.13;6.63;;;;;;;5.55;72.58;95477.00;5102374;28;20203;-69
2024/01/07 00:52:12;;;;;;;9.60;7.80;;;;;;;5.45;72.63;95473.88;5093224;28;20177;-68
2024/01/07 00:54:37;;;;;;;10.60;7.33;;;;;;;5.43;72.57;95472.25;5094384;28;20257;-69
2024/01/07 00:57:03;;;;;;;9.40;6.80;;;;;;;5.30;73.44;95480.53;5095847;28;20265;-69
2024/01/07 00:59:31;;;;;;;9.00;8.10;;;;;;;5.43;73.06;95472.25;5095427;28;20161;-69
2024/01/07 01:01:57;;;;;;;9.60;6.90;;;;;;;5.46;72.88;95478.19;5089514;28;20452;-70
2024/01/07 01:04:22;;;;;;;8.60;6.97;;;;;;;5.36;73.46;95478.59;5087271;28;20515;-68
2024/01/07 01:06:48;;;;;;;10.10;7.30;;;;;;;5.50;73.13;95478.91;5087325;28;20201;-70
2024/01/07 01:09:13;;;;;;;8.00;7.17;;;;;;;5.43;73.37;95480.94;5086764;28;20568;-69
2024/01/07 01:11:38;;;;;;;10.53;7.77;;;;;;;5.48;72.89;95478.13;5086896;28;20224;-68
2024/01/07 01:14:04;;;;;;;9.67;7.43;;;;;;;5.48;72.92;95472.91;5086586;28;20539;-69
2024/01/07 01:16:29;;;;;;;9.93;8.67;;;;;;;5.61;72.50;95473.31;5086554;28;20296;-69
2024/01/07 01:18:55;;;;;;;9.27;7.00;;;;;;;5.51;72.50;95480.63;5086546;28;20173;-68
2024/01/07 01:21:20;;;;;;;9.97;7.37;;;;;;;5.48;72.85;95484.19;5086445;28;20251;-68
2024/01/07 01:23:46;;;;;;;8.93;7.57;;;;;;;5.42;72.91;95483.56;5086426;28;20173;-68
2024/01/07 01:26:11;;;;;;;10.00;7.97;;;;;;;5.42;72.66;95488.78;5086101;28;20694;-70
2024/01/07 01:28:37;;;;;;;11.77;8.57;;;;;;;5.40;72.95;95488.00;5085789;28;20234;-68
2024/01/07 01:31:02;;;;;;;10.17;7.37;;;;;;;5.32;72.63;95485.69;5085872;28;20207;-68
2024/01/07 01:33:28;;;;;;;8.87;6.80;;;;;;;5.39;73.10;95486.31;5084951;28;20173;-69
2024/01/07 01:35:53;;;;;;;8.87;7.07;;;;;;;5.29;73.73;95491.84;5084480;28;20288;-69
2024/01/07 01:38:18;;;;;;;14.00;7.63;;;;;;;5.29;73.68;95481.44;5085626;28;20189;-69
2024/01/07 01:40:44;;;;;;;9.60;7.30;;;;;;;5.45;73.33;95480.84;5086148;28;20288;-69
2024/01/07 01:43:09;;;;;;;8.90;7.50;;;;;;;5.32;73.41;95479.66;5085728;28;20181;-70
2024/01/07 01:45:34;;;;;;;11.00;8.23;;;;;;;5.57;72.81;95476.94;5084968;28;20723;-69
2024/01/07 01:48:00;;;;;;;9.07;7.67;;;;;;;5.45;73.44;95483.44;5085764;28;20239;-69
2024/01/07 01:50:26;;;;;;;10.07;8.07;;;;;;;5.43;73.38;95482.66;5085394;28;20205;-70
2024/01/07 01:52:52;;;;;;;11.10;7.33;;;;;;;5.39;73.56;95478.50;5085630;28;20425;-70
2024/01/07 01:55:18;;;;;;;12.73;8.77;;;;;;;5.42;73.84;95483.56;5085707;28;20181;-68
2024/01/07 01:57:47;;;;;;;10.00;7.30;;;;;;;5.42;73.75;95484.41;5085518;28;20179;-69
2024/01/07 02:00:13;;;;;;;11.40;8.70;;;;;;;5.44;73.67;95480.00;5085337;28;20431;-69
2024/01/07 02:02:38;;;;;;;7.80;6.60;;;;;;;5.56;73.02;95476.09;5085825;28;20420;-70
2024/01/07 02:05:04;;;;;;;8.60;7.70;;;;;;;5.53;73.32;95476.22;5086086;28;20407;-69
2024/01/07 02:07:32;;;;;;;9.70;7.80;;;;;;;5.45;73.10;95473.03;5086203;28;20254;-69
2024/01/07 02:09:59;;;;;;;9.53;7.70;;;;;;;5.38;73.70;95482.00;5086984;28;20243;-69
2024/01/07 02:12:25;;;;;;;9.00;7.60;;;;;;;5.43;73.49;95477.47;5086006;28;20560;-70
2024/01/07 02:14:50;;;;;;;9.57;7.47;;;;;;;5.40;72.89;95478.41;5086346;28;20448;-68
2024/01/07 02:17:16;;;;;;;9.53;8.07;;;;;;;5.29;74.36;95478.84;5085869;28;20856;-70
2024/01/07 02:19:41;;;;;;;9.13;7.33;;;;;;;5.38;73.55;95479.38;5085812;28;20235;-69
2024/01/07 02:22:06;;;;;;;9.67;8.27;;;;;;;5.33;73.55;95483.94;5085928;28;20182;-68
2024/01/07 02:24:32;;;;;;;10.23;8.07;;;;;;;5.40;73.66;95475.81;5085832;28;20193;-68
2024/01/07 02:26:58;;;;;;;11.10;8.47;;;;;;;5.45;72.78;95480.84;5086309;28;20515;-70
2024/01/07 02:29:23;;;;;;;9.93;7.60;;;;;;;5.24;74.01;95485.13;5085873;28;20201;-68
2024/01/07 02:31:48;;;;;;;9.73;7.70;;;;;;;5.11;74.65;95484.75;5085787;28;20776;-71
2024/01/07 02:34:14;;;;;;;10.10;7.97;;;;;;;5.27;74.07;95483.25;5085319;28;20173;-67
2024/01/07 02:36:39;;;;;;;11.20;7.57;;;;;;;5.46;73.61;95486.00;5085499;28;20352;-68
2024/01/07 02:39:04;;;;;;;13.97;7.93;;;;;;;5.49;73.68;95483.28;5084981;28;20181;-70
2024/01/07 02:41:30;;;;;;;9.00;7.80;;;;;;;5.42;74.07;95475.78;5085250;28;20547;-69
2024/01/07 02:43:55;;;;;;;9.37;7.33;;;;;;;5.40;74.31;95470.63;5085979;28;20906;-69
2024/01/07 02:46:21;;;;;;;11.40;8.50;;;;;;;5.41;74.00;95477.53;5089909;28;21015;-69
2024/01/07 02:48:47;;;;;;;10.03;7.30;;;;;;;5.15;74.21;95478.53;5091171;28;20182;-69
2024/01/07 02:51:12;;;;;;;12.40;8.10;;;;;;;5.38;73.70;95476.78;5093645;28;20465;-69
2024/01/07 02:53:37;;;;;;;9.50;7.53;;;;;;;5.42;73.33;95473.16;5094045;28;20208;-69
2024/01/07 02:56:03;;;;;;;8.57;7.23;;;;;;;5.25;73.66;95474.66;5095369;28;20742;-69
2024/01/07 02:58:28;;;;;;;10.40;8.10;;;;;;;5.45;73.15;95475.66;5090646;28;20586;-70
2024/01/07 03:00:54;;;;;;;9.63;7.90;;;;;;;4.60;75.78;95476.16;5088861;28;20216;-69
2024/01/07 03:03:19;;;;;;;9.67;8.10;;;;;;;4.96;75.08;95483.56;5089553;28;20172;-69
2024/01/07 03:05:45;;;;;;;9.43;7.50;;;;;;;5.08;74.80;95485.69;5088936;28;20209;-69
2024/01/07 03:08:10;;;;;;;12.57;8.80;;;;;;;5.07;74.43;95489.19;5088869;28;20166;-70
2024/01/07 03:10:35;;;;;;;9.43;7.20;;;;;;;5.20;74.03;95488.75;5088672;28;20201;-69
2024/01/07 03:13:01;;;;;;;12.23;8.43;;;;;;;5.22;74.30;95485.19;5088250;28;20230;-68
2024/01/07 03:15:26;;;;;;;10.17;7.87;;;;;;;5.35;73.61;95480.34;5088434;28;20269;-68
2024/01/07 03:17:52;;;;;;;9.70;8.53;;;;;;;5.23;74.23;95481.66;5088535;28;20277;-68
2024/01/07 03:20:17;;;;;;;11.37;8.00;;;;;;;5.25;73.72;95481.63;5088539;28;20218;-70
2024/01/07 03:22:43;;;;;;;13.83;8.97;;;;;;;5.22;74.76;95492.13;5088997;28;20166;-70
2024/01/07 03:25:08;;;;;;;11.30;8.23;;;;;;;5.23;74.48;95489.47;5088658;28;20465;-70
2024/01/07 03:27:34;;;;;;;9.87;8.60;;;;;;;5.36;73.77;95486.41;5088498;28;20820;-69
2024/01/07 03:29:59;;;;;;;12.60;7.77;;;;;;;5.21;74.19;95487.84;5089809;28;20197;-69
2024/01/07 03:32:24;;;;;;;8.90;8.00;;;;;;;5.22;74.03;95494.72;5088500;28;20169;-69
2024/01/07 03:34:50;;;;;;;10.00;8.20;;;;;;;5.17;73.27;95488.84;5088200;28;20256;-68
2024/01/07 03:37:17;;;;;;;9.83;8.17;;;;;;;5.27;73.70;95487.63;5087995;28;20189;-68
2024/01/07 03:39:42;;;;;;;10.43;8.17;;;;;;;5.19;73.18;95490.47;5087667;28;20170;-68
2024/01/07 03:42:11;;;;;;;9.43;8.37;;;;;;;5.31;72.88;95494.38;5086837;28;20415;-68
2024/01/07 03:44:38;;;;;;;13.70;9.37;;;;;;;5.11;74.17;95487.34;5088127;28;20178;-68
2024/01/07 03:47:04;;;;;;;10.60;8.30;;;;;;;4.99;74.74;95496.44;5089179;28;20427;-68
2024/01/07 03:49:29;;;;;;;10.90;8.00;;;;;;;4.97;74.69;95493.03;5087660;28;20480;-67
2024/01/07 03:51:54;;;;;;;11.10;7.83;;;;;;;4.99;73.82;95498.19;5087921;28;20231;-68
2024/01/07 03:54:20;;;;;;;9.50;8.10;;;;;;;5.00;74.14;95494.69;5087972;28;20180;-68
2024/01/07 03:56:45;;;;;;;10.50;8.27;;;;;;;4.87;75.02;95497.72;5087938;28;21037;-68
2024/01/07 03:59:10;;;;;;;17.77;8.37;;;;;;;4.42;77.12;95506.25;5087908;28;20184;-68
2024/01/07 04:01:36;;;;;;;10.57;8.83;;;;;;;4.76;76.05;95505.06;5088561;28;20173;-70
2024/01/07 04:04:01;;;;;;;17.10;8.20;;;;;;;4.85;75.45;95502.13;5089492;28;20169;-68
2024/01/07 04:06:26;;;;;;;12.83;7.70;;;;;;;4.81;74.95;95499.69;5087846;28;20189;-68
2024/01/07 04:08:52;;;;;;;14.03;9.00;;;;;;;4.95;75.33;95502.66;5086638;28;20180;-68
2024/01/07 04:11:17;;;;;;;9.83;8.83;;;;;;;5.14;73.99;95512.38;5087450;28;20540;-69
2024/01/07 04:13:43;;;;;;;10.70;8.13;;;;;;;5.01;74.31;95514.59;5087499;28;20224;-70
2024/01/07 04:16:21;;;;;;;12.30;8.23;;;;;;;5.22;73.87;95510.31;5087392;28;20748;-68
2024/01/07 04:18:47;;;;;;;10.47;8.27;;;;;;;5.05;74.58;95510.94;5086988;28;20844;-70
2024/01/07 04:21:13;;;;;;;9.50;7.70;;;;;;;4.95;74.78;95507.00;5087381;28;20910;-69
2024/01/07 04:23:40;;;;;;;10.73;7.70;;;;;;;4.91;74.94;95515.81;5087373;28;20423;-70
2024/01/07 04:26:06;;;;;;;10.17;7.50;;;;;;;4.74;74.80;95516.41;5087580;28;20193;-68
2024/01/07 04:28:31;;;;;;;9.57;8.07;;;;;;;4.77;74.53;95517.16;5087435;28;20860;-67
2024/01/07 04:30:56;;;;;;;13.60;8.80;;;;;;;4.81;74.79;95521.31;5087125;28;20196;-70
2024/01/07 04:33:22;;;;;;;12.47;8.17;;;;;;;4.82;74.87;95528.25;5088642;28;20201;-68
2024/01/07 04:35:47;;;;;;;15.70;9.07;;;;;;;4.81;75.14;95531.72;5087537;28;20194;-68
2024/01/07 04:38:13;;;;;;;20.63;8.63;;;;;;;4.92;74.60;95526.16;5086588;28;20652;-69
2024/01/07 04:40:39;;;;;;;8.63;7.73;;;;;;;5.01;73.98;95525.00;5087013;28;20582;-70
2024/01/07 04:43:04;;;;;;;8.37;7.47;;;;;;;5.06;74.29;95523.91;5087690;28;20410;-69
2024/01/07 04:45:29;;;;;;;9.37;8.37;;;;;;;5.11;74.18;95523.75;5086875;28;20660;-69
2024/01/07 04:47:55;;;;;;;13.00;8.93;;;;;;;4.92;74.27;95533.13;5087125;28;20169;-69
2024/01/07 04:50:20;;;;;;;10.00;7.83;;;;;;;4.88;74.62;95532.38;5086675;28;20319;-69
2024/01/07 04:52:46;;;;;;;9.10;8.20;;;;;;;4.99;73.93;95532.00;5087031;28;20169;-68
2024/01/07 04:55:12;;;;;;;9.83;8.20;;;;;;;4.80;74.32;95534.41;5092528;28;20193;-69
2024/01/07 04:57:37;;;;;;;10.03;8.50;;;;;;;4.79;75.33;95536.13;5095390;28;20193;-68
2024/01/07 05:00:03;;;;;;;9.97;8.70;;;;;;;4.79;74.68;95538.72;5087873;28;20169;-68
2024/01/07 05:02:29;;;;;;;9.53;8.53;;;;;;;4.82;75.10;95538.63;5088563;28;20269;-69
2024/01/07 05:04:55;;;;;;;9.97;7.30;;;;;;;4.95;74.55;95540.81;5087780;28;20487;-70
2024/01/07 05:07:20;;;;;;;8.33;7.50;;;;;;;4.70;74.80;95539.06;5087223;28;20193;-68
2024/01/07 05:09:45;;;;;;;11.43;7.83;;;;;;;4.92;74.80;95546.97;5086868;28;20193;-70
2024/01/07 05:12:11;;;;;;;12.10;8.43;;;;;;;5.00;73.77;95547.53;5087191;28;20170;-68
2024/01/07 05:14:37;;;;;;;8.67;7.87;;;;;;;4.78;74.67;95547.44;5086946;28;20177;-68
2024/01/07 05:17:03;;;;;;;10.83;8.93;;;;;;;4.58;75.57;95549.88;5086647;28;20679;-69
2024/01/07 05:19:29;;;;;;;9.43;8.17;;;;;;;4.72;75.84;95554.59;5085342;28;20597;-69
2024/01/07 05:21:54;;;;;;;12.97;9.53;;;;;;;4.78;75.09;95554.41;5086417;28;20940;-68
2024/01/07 05:24:19;;;;;;;11.80;9.70;;;;;;;4.40;75.69;95559.16;5086495;28;20648;-68
2024/01/07 05:26:45;;;;;;;13.00;9.13;;;;;;;4.95;74.70;95561.59;5086661;28;20208;-68
2024/01/07 05:29:11;;;;;;;14.50;9.33;;;;;;;4.65;75.96;95572.13;5086445;28;20260;-69
2024/01/07 05:31:38;;;;;;;11.20;9.50;;;;;;;4.62;75.51;95561.88;5087694;28;20265;-68
2024/01/07 05:34:03;;;;;;;11.60;8.93;;;;;;;4.77;75.42;95561.34;5091211;28;20412;-70
2024/01/07 05:36:29;;;;;;;12.00;9.80;;;;;;;4.73;75.01;95562.34;5091493;28;20419;-69
2024/01/07 05:38:54;;;;;;;11.70;9.30;;;;;;;4.79;74.95;95559.53;5090783;28;20271;-69
2024/01/07 05:41:20;;;;;;;11.47;9.50;;;;;;;4.85;74.25;95567.13;5092332;27;20225;-70
2024/01/07 05:43:45;;;;;;;11.20;9.40;;;;;;;4.69;74.95;95563.34;5087160;28;20660;-69
2024/01/07 05:46:11;;;;;;;12.37;9.80;;;;;;;4.68;75.40;95566.88;5079169;28;20200;-69
2024/01/07 05:48:48;;;;;;;12.53;10.27;;;;;;;4.78;74.60;95565.63;5070578;28;20228;-69
2024/01/07 05:51:14;;;;;;;11.80;9.73;;;;;;;4.81;74.23;95564.69;5073416;28;20572;-69
2024/01/07 05:53:40;;;;;;;12.17;9.40;;;;;;;4.85;74.28;95577.50;5073638;28;20443;-69
2024/01/07 05:56:06;;;;;;;10.20;9.07;;;;;;;4.51;75.78;95570.00;5072634;28;20459;-69
2024/01/07 05:58:31;;;;;;;12.30;10.73;;;;;;;4.75;75.35;95570.06;5076395;28;20805;-69
2024/01/07 06:00:57;;;;;;;13.70;8.80;;;;;;;4.88;74.65;95572.19;5073745;28;20182;-69
2024/01/07 06:03:22;;;;;;;10.77;8.43;;;;;;;4.92;75.04;95570.34;5074619;28;20922;-69
2024/01/07 06:05:48;;;;;;;11.40;9.67;;;;;;;4.66;75.76;95568.66;5077407;28;20197;-69
2024/01/07 06:08:13;;;;;;;10.63;8.50;;;;;;;4.72;75.46;95575.38;5070836;28;20660;-69
2024/01/07 06:10:39;;;;;;;12.70;9.50;;;;;;;4.74;75.56;95577.03;5073660;28;20204;-69
2024/01/07 06:13:05;;;;;;;12.00;9.90;;;;;;;4.60;75.51;95579.25;5079085;28;20181;-69
2024/01/07 06:15:30;;;;;;;12.10;10.00;;;;;;;4.75;74.93;95578.75;5079782;28;20446;-69
2024/01/07 06:17:56;;;;;;;12.00;8.80;;;;;;;4.52;76.92;95583.88;5085392;28;20194;-69
2024/01/07 06:20:21;;;;;;;13.47;9.60;;;;;;;4.66;76.04;95584.25;5084648;28;20231;-68
2024/01/07 06:22:46;;;;;;;11.37;10.13;;;;;;;4.72;76.23;95585.78;5079431;28;20643;-68
2024/01/07 06:25:12;;;;;;;11.40;9.43;;;;;;;4.81;75.70;95583.72;5081506;28;20205;-67
2024/01/07 06:27:41;;;;;;;12.97;10.73;;;;;;;4.87;75.76;95580.06;5073896;28;20201;-67
2024/01/07 06:30:07;;;;;;;12.97;11.20;;;;;;;4.70;75.63;95585.84;5078140;28;20236;-67
2024/01/07 06:32:32;;;;;;;11.23;10.00;;;;;;;4.46;76.80;95587.50;5070024;28;20942;-67
2024/01/07 06:35:01;;;;;;;12.40;10.30;;;;;;;4.57;76.81;95593.19;5076410;28;20182;-66
2024/01/07 06:37:29;;;;;;;11.90;9.70;;;;;;;4.60;76.46;95594.84;5075936;28;20217;-66
2024/01/07 06:39:54;;;;;;;11.93;9.70;;;;;;;4.58;76.45;95597.50;5076963;28;20511;-66
2024/01/07 06:42:20;;;;;;;12.20;9.77;;;;;;;4.61;76.87;95602.59;5082586;28;20494;-68
2024/01/07 06:44:45;;;;;;;13.77;9.87;;;;;;;4.65;76.66;95601.59;5089255;28;20292;-66
2024/01/07 06:47:11;;;;;;;14.33;11.00;;;;;;;4.59;76.18;95606.16;5081687;28;20936;-66
2024/01/07 06:49:36;;;;;;;11.13;9.63;;;;;;;4.57;76.82;95607.94;5088731;28;20185;-66
2024/01/07 06:52:01;;;;;;;16.67;10.97;;;;;;;4.68;76.06;95613.63;5081563;28;20186;-65
2024/01/07 06:54:27;;;;;;;16.93;9.37;;;;;;;4.52;76.41;95605.50;5089107;28;20644;-68
2024/01/07 06:56:52;;;;;;;13.17;10.33;;;;;;;4.65;76.02;95612.00;5088515;28;20201;-67
2024/01/07 06:59:18;;;;;;;14.90;9.80;;;;;;;4.67;75.59;95610.16;5088246;28;20177;-67
2024/01/07 07:01:43;;;;;;;20.17;11.27;;;;;;;4.72;75.71;95607.41;5080761;28;20188;-67
2024/01/07 07:04:08;;;;;;;10.60;9.50;;;;;;;4.81;75.59;95614.06;5086479;28;20258;-67
2024/01/07 07:06:34;;;;;;;12.00;9.87;;;;;;;4.55;75.93;95620.97;5073329;28;20201;-68
2024/01/07 07:09:00;;;;;;;14.03;10.57;;;;;;;4.33;76.58;95618.22;5088067;28;20199;-67
2024/01/07 07:11:26;;;;;;;13.37;10.60;;;;;;;4.28;76.77;95617.53;5084336;28;20251;-67
2024/01/07 07:13:51;;;;;;;19.93;11.00;;;;;;;4.64;75.66;95615.47;5077702;28;20205;-67
2024/01/07 07:16:16;;;;;;;15.70;10.57;;;;;;;4.64;74.95;95623.28;5079037;28;20209;-67
2024/01/07 07:18:42;;;;;;;10.80;9.60;;;;;;;4.68;75.04;95626.63;5085128;28;20177;-67
2024/01/07 07:21:08;;;;;;;13.63;10.03;;;;;;;4.83;74.06;95626.09;5086096;28;20182;-66
2024/01/07 07:23:33;;;;;;;14.23;10.87;;;;;;;4.61;75.35;95625.13;5079252;28;20272;-67
2024/01/07 07:25:58;;;;;;;12.10;10.30;;;;;;;4.63;75.32;95631.09;5074380;28;20543;-67
2024/01/07 07:28:24;;;;;;;11.80;10.00;;;;;;;4.60;75.13;95628.63;5069990;28;20213;-67
2024/01/07 07:30:49;;;;;;;13.03;10.80;;;;;;;4.66;74.93;95629.28;5075469;28;20323;-67
2024/01/07 07:33:15;;;;;;;11.40;9.00;;;;;;;4.76;74.70;95635.00;5086890;28;20548;-67
2024/01/07 07:35:41;;;;;;;15.03;10.70;;;;;;;4.79;74.89;95645.28;5076834;28;20189;-67
2024/01/07 07:38:07;;;;;;;19.63;10.90;;;;;;;5.01;74.70;95647.19;5081932;28;20730;-67
2024/01/07 07:40:32;;;;;;;11.23;10.10;;;;;;;4.60;75.64;95652.00;5079674;28;20429;-69
2024/01/07 07:42:59;;;;;;;13.00;10.10;;;;;;;4.42;76.71;95646.50;5077786;28;20202;-68
2024/01/07 07:45:24;;;;;;;12.90;9.80;;;;;;;4.26;76.85;95653.09;5084771;28;20481;-68
2024/01/07 07:47:49;;;;;;;12.50;10.77;;;;;;;4.51;75.79;95655.75;5078604;28;20719;-68
2024/01/07 07:50:15;;;;;;;12.03;10.53;;;;;;;4.22;76.97;95667.06;5080668;28;20672;-67
2024/01/07 07:52:43;;;;;;;16.03;10.37;;;;;;;4.45;76.17;95661.16;5087594;28;20192;-68
2024/01/07 07:55:09;;;;;;;14.60;12.13;;;;;;;4.69;75.91;95669.91;5081962;28;20758;-68
2024/01/07 07:57:35;;;;;;;13.67;10.90;;;;;;;4.77;75.47;95670.50;5077418;28;20454;-67
2024/01/07 08:00:01;;;;;;;13.90;11.07;;;;;;;4.82;74.40;95679.00;5075977;28;21106;-67
2024/01/07 08:02:26;;;;;;;15.43;10.30;;;;;;;4.89;74.29;95674.47;5078399;28;20255;-67
2024/01/07 08:04:52;;;;;;;14.03;10.43;;;;;;;4.78;74.60;95677.41;5075604;28;20173;-68
2024/01/07 08:07:17;;;;;;;14.33;10.40;;;;;;;4.59;74.63;95686.69;5074546;28;20206;-66
2024/01/07 08:09:43;;;;;;;9.23;7.50;;;;;;;7.62;97.22;95674.38;5078661;28;20217;-68
2024/01/07 08:12:08;;;;;;;11.03;8.00;;;;;;;8.19;83.41;95669.22;5070198;28;20795;-66
2024/01/07 08:14:35;;;;;;;11.43;10.20;;;;;;;6.11;70.38;95671.84;5095300;28;20177;-68
2024/01/07 08:17:00;;;;;;;10.67;8.90;;;;;;;5.65;70.98;95681.34;5100110;28;20211;-69
2024/01/07 08:19:26;;;;;;;10.70;8.93;;;;;;;5.10;73.19;95691.06;5077921;28;20415;-67
2024/01/07 08:21:52;;;;;;;10.77;9.10;;;;;;;4.99;73.55;95694.03;5087877;28;20177;-67
2024/01/07 08:24:18;;;;;;;13.03;8.40;;;;;;;5.00;73.78;95690.53;5092636;28;20279;-67
2024/01/07 08:26:43;;;;;;;14.30;8.70;;;;;;;4.81;73.90;95687.69;5086697;28;20965;-67
2024/01/07 08:29:08;;;;;;;13.50;9.70;;;;;;;4.70;74.59;95689.81;5088231;28;20196;-68
2024/01/07 08:31:34;;;;;;;10.73;9.63;;;;;;;4.22;75.78;95693.88;5088054;28;20194;-66
2024/01/07 08:33:59;;;;;;;11.03;9.03;;;;;;;4.73;74.42;95689.69;5080902;28;20208;-68
2024/01/07 08:36:25;;;;;;;10.40;9.00;;;;;;;4.57;74.12;95699.72;5085928;28;20262;-68
2024/01/07 08:38:50;;;;;;;9.93;8.50;;;;;;;4.27;73.53;95695.47;5080451;28;20255;-69
2024/01/07 08:41:16;;;;;;;9.40;8.47;;;;;;;4.28;74.51;95699.81;5085294;28;20704;-67
2024/01/07 08:43:42;;;;;;;11.03;8.67;;;;;;;4.19;74.33;95696.56;5080457;28;20205;-67
2024/01/07 08:46:07;;;;;;;8.40;7.60;;;;;;;4.27;73.54;95701.53;5087280;28;20205;-67
2024/01/07 08:48:33;;;;;;;9.30;8.27;;;;;;;4.41;73.08;95712.34;5087163;28;20177;-67
2024/01/07 08:50:58;;;;;;;9.50;8.50;;;;;;;4.43;72.50;95710.53;5086479;28;20226;-67
2024/01/07 08:53:23;;;;;;;10.47;8.27;;;;;;;4.26;73.02;95709.38;5086439;28;20173;-67
2024/01/07 08:55:49;;;;;;;9.57;8.00;;;;;;;4.03;74.42;95722.13;5086067;28;20228;-66
2024/01/07 08:58:17;;;;;;;8.57;7.67;;;;;;;4.38;73.21;95717.63;5086741;28;20628;-67
2024/01/07 09:00:43;;;;;;;10.20;8.60;;;;;;;4.21;72.73;95719.91;5085968;28;20260;-66
2024/01/07 09:03:09;;;;;;;8.60;7.73;;;;;;;4.16;73.01;95727.00;5086260;28;20408;-67
2024/01/07 09:05:34;;;;;;;9.37;7.30;;;;;;;4.06;72.97;95723.78;5086533;28;20447;-67
2024/01/07 09:08:00;;;;;;;8.93;7.97;;;;;;;4.09;73.21;95738.44;5086625;28;21252;-67
2024/01/07 09:10:26;;;;;;;11.30;7.50;;;;;;;3.80;73.76;95734.91;5086408;28;20526;-67
2024/01/07 09:12:53;;;;;;;11.77;8.20;;;;;;;4.05;73.49;95731.63;5086477;28;20180;-67
2024/01/07 09:15:19;;;;;;;9.57;8.23;;;;;;;3.86;72.10;95741.69;5086763;28;20408;-67
2024/01/07 09:17:46;;;;;;;12.20;8.40;;;;;;;4.02;72.52;95746.41;5086658;28;20522;-68
2024/01/07 09:20:12;;;;;;;10.67;7.23;;;;;;;3.88;72.10;95745.09;5086527;28;20411;-66
2024/01/07 09:22:37;;;;;;;10.50;8.10;;;;;;;4.05;72.40;95739.44;5086829;28;20411;-68
2024/01/07 09:25:03;;;;;;;8.57;7.67;;;;;;;4.03;71.65;95744.66;5086468;28;20873;-66
2024/01/07 09:27:29;;;;;;;8.90;7.20;;;;;;;3.67;73.23;95752.56;5086475;28;20201;-68
2024/01/07 09:29:55;;;;;;;12.77;8.43;;;;;;;4.09;72.55;95751.44;5086687;28;20545;-68
2024/01/07 09:32:20;;;;;;;10.10;8.33;;;;;;;3.92;72.20;95752.75;5086943;28;20415;-68
2024/01/07 09:34:45;;;;;;;10.90;8.17;;;;;;;4.01;72.95;95760.25;5087105;28;20261;-67
2024/01/07 09:37:11;;;;;;;12.30;8.33;;;;;;;4.03;72.85;95761.06;5086627;28;20241;-68
2024/01/07 09:39:40;;;;;;;9.90;7.27;;;;;;;3.96;72.89;95756.09;5086477;28;20179;-66
2024/01/07 09:42:12;;;;;;;9.27;7.83;;;;;;;4.19;72.55;95760.66;5086966;28;20177;-66
2024/01/07 09:44:37;;;;;;;12.03;8.37;;;;;;;4.31;71.53;95759.44;5087143;28;20865;-68
2024/01/07 09:47:05;;;;;;;9.23;7.43;;;;;;;3.94;72.79;95769.13;5087557;28;20427;-67
2024/01/07 09:49:31;;;;;;;10.30;7.77;;;;;;;3.78;73.28;95770.44;5086111;28;20201;-68
2024/01/07 09:52:01;;;;;;;9.23;7.60;;;;;;;3.59;74.14;95778.75;5085567;28;20491;-69
2024/01/07 09:54:27;;;;;;;9.60;7.20;;;;;;;3.71;73.61;95769.78;5085011;28;20189;-66
2024/01/07 09:56:57;;;;;;;9.93;7.60;;;;;;;3.91;73.06;95781.34;5086375;28;20842;-66
2024/01/07 09:59:23;;;;;;;13.43;8.47;;;;;;;3.71;73.45;95785.34;5084997;28;20524;-67
2024/01/07 10:01:50;;;;;;;10.10;7.60;;;;;;;4.00;72.70;95789.72;5085733;28;20444;-68
2024/01/07 10:04:15;;;;;;;9.37;7.53;;;;;;;4.06;71.62;95787.84;5086295;28;20173;-68
2024/01/07 10:06:41;;;;;;;9.83;7.50;;;;;;;3.96;71.78;95782.06;5085162;28;20439;-68
2024/01/07 10:09:06;;;;;;;10.33;6.80;;;;;;;3.68;73.26;95789.75;5085860;28;20261;-67
2024/01/07 10:11:32;;;;;;;10.23;7.63;;;;;;;3.62;72.60;95790.78;5085923;28;20209;-67
2024/01/07 10:13:58;;;;;;;9.80;6.53;;;;;;;3.76;72.61;95788.66;5085944;28;20177;-67
2024/01/07 10:16:23;;;;;;;10.03;7.27;;;;;;;3.80;71.74;95794.59;5086178;28;20797;-69
2024/01/07 10:18:49;;;;;;;11.53;8.17;;;;;;;3.26;72.71;95790.84;5085783;28;20174;-69
2024/01/07 10:21:14;;;;;;;10.87;7.00;;;;;;;3.76;71.36;95790.41;5086777;28;20169;-67
2024/01/07 10:23:39;;;;;;;10.17;7.10;;;;;;;3.55;72.07;95787.47;5086583;28;20543;-67
2024/01/07 10:26:05;;;;;;;9.97;7.90;;;;;;;3.36;73.30;95781.94;5086976;28;20199;-67
2024/01/07 10:28:31;;;;;;;7.53;6.63;;;;;;;3.06;73.46;95791.31;5086852;28;20178;-67
2024/01/07 10:30:57;;;;;;;10.90;7.60;;;;;;;3.49;73.06;95787.63;5089455;28;20482;-66
2024/01/07 10:33:25;;;;;;;7.70;6.10;;;;;;;3.50;71.77;95794.53;5090494;28;20431;-67
2024/01/07 10:36:01;;;;;;;10.07;7.37;;;;;;;3.48;72.15;95783.34;5091476;28;20219;-71
2024/01/07 10:38:26;;;;;;;8.53;7.20;;;;;;;3.81;70.92;95788.53;5091761;28;20430;-66
2024/01/07 10:40:58;;;;;;;9.90;6.70;;;;;;;3.21;72.62;95797.84;5092962;28;20419;-67
2024/01/07 10:43:29;;;;;;;9.30;7.30;;;;;;;3.45;72.27;95793.81;5090604;28;20178;-68
2024/01/07 10:45:55;;;;;;;11.97;6.77;;;;;;;3.35;73.50;95797.50;5091634;28;20500;-68
2024/01/07 10:48:23;;;;;;;9.13;7.17;;;;;;;3.15;73.37;95793.69;5091614;28;20461;-67
2024/01/07 10:50:55;;;;;;;9.13;7.23;;;;;;;3.47;73.44;95791.16;5090647;28;20455;-70
2024/01/07 10:53:22;;;;;;;12.70;7.40;;;;;;;3.36;73.08;95794.03;5090488;28;20464;-68
2024/01/07 10:56:03;;;;;;;11.80;7.53;;;;;;;3.71;72.18;95790.53;5090180;28;20956;-68
2024/01/07 10:58:30;;;;;;;9.20;7.30;;;;;;;3.65;72.33;95789.84;5090243;28;20414;-66
2024/01/07 11:00:56;;;;;;;8.67;6.40;;;;;;;3.56;72.88;95796.97;5091615;28;20411;-67
2024/01/07 11:04:01;;;;;;;9.40;7.13;;;;;;;3.35;73.84;95793.19;5090429;28;20743;-66
2024/01/07 11:06:42;;;;;;;13.57;7.73;;;;;;;3.82;72.57;95792.81;5088668;28;20460;-66
2024/01/07 11:09:18;;;;;;;14.77;7.17;;;;;;;3.77;72.42;95789.50;5090288;28;20472;-68
2024/01/07 11:11:44;;;;;;;11.17;7.47;;;;;;;3.70;71.18;95799.19;5087391;28;20473;-66
2024/01/07 11:14:39;;;;;;;12.07;7.57;;;;;;;3.66;71.68;95797.59;5087211;28;20407;-70
2024/01/07 11:17:06;;;;;;;15.50;8.60;;;;;;;3.67;71.19;95785.47;5087197;28;20197;-68
2024/01/07 11:19:31;;;;;;;8.17;6.30;;;;;;;3.26;71.33;95783.06;5090244;28;20889;-66
2024/01/07 11:22:29;;;;;;;11.73;6.47;;;;;;;3.10;72.46;95787.75;5090313;28;20429;-68
2024/01/07 11:24:56;;;;;;;8.40;6.80;;;;;;;3.32;71.97;95792.41;5066735;28;20185;-68
2024/01/07 11:27:23;;;;;;;14.57;6.77;;;;;;;3.51;71.88;95782.41;5091039;28;20434;-68
2024/01/07 11:30:04;;;;;;;9.70;6.90;;;;;;;3.52;71.18;95790.16;5093052;28;20411;-67
2024/01/07 11:32:30;;;;;;;8.53;6.43;;;;;;;3.63;70.22;95786.44;5092166;28;20442;-68